sensor_id;sensor_type;location;lat;lon;timestamp;temperature;humidity
47757;SHT35;22147;52.388;13.390;2022-11-11T00:01:34;8.29;89.14
47757;SHT35;22147;52.388;13.390;2022-11-11T00:04:03;8.27;89.51
47757;SHT35;22147;52.388;13.390;2022-11-11T00:06:31;8.38;89.46
47757;SHT35;22147;52.388;13.390;2022-11-11T00:09:00;8.32;89.30
47757;SHT35;22147;52.388;13.390;2022-11-11T00:11:28;8.34;89.54
47757;SHT35;22147;52.388;13.390;2022-11-11T00:13:56;8.36;89.47
47757;SHT35;22147;52.388;13.390;2022-11-11T00:16:25;8.36;89.40
47757;SHT35;22147;52.388;13.390;2022-11-11T00:19:15;8.38;89.27
47757;SHT35;22147;52.388;13.390;2022-11-11T00:22:19;8.38;89.36
47757;SHT35;22147;52.388;13.390;2022-11-11T00:25:08;8.37;88.91
47757;SHT35;22147;52.388;13.390;2022-11-11T00:27:39;8.29;89.08
47757;SHT35;22147;52.388;13.390;2022-11-11T00:30:10;8.32;89.25
47757;SHT35;22147;52.388;13.390;2022-11-11T00:32:40;8.29;89.20
47757;SHT35;22147;52.388;13.390;2022-11-11T00:35:11;8.22;89.16
47757;SHT35;22147;52.388;13.390;2022-11-11T00:38:12;8.13;89.44
47757;SHT35;22147;52.388;13.390;2022-11-11T00:41:03;8.07;89.75
47757;SHT35;22147;52.388;13.390;2022-11-11T00:43:31;8.10;89.73
47757;SHT35;22147;52.388;13.390;2022-11-11T00:46:00;8.12;89.68
47757;SHT35;22147;52.388;13.390;2022-11-11T00:48:49;8.09;89.64
47757;SHT35;22147;52.388;13.390;2022-11-11T00:51:39;8.02;89.55
47757;SHT35;22147;52.388;13.390;2022-11-11T00:54:10;8.02;89.74
47757;SHT35;22147;52.388;13.390;2022-11-11T00:56:40;7.97;89.73
47757;SHT35;22147;52.388;13.390;2022-11-11T00:59:11;7.90;89.78
47757;SHT35;22147;52.388;13.390;2022-11-11T01:01:41;7.92;89.88
47757;SHT35;22147;52.388;13.390;2022-11-11T01:04:11;7.88;89.92
47757;SHT35;22147;52.388;13.390;2022-11-11T01:06:41;7.78;90.22
47757;SHT35;22147;52.388;13.390;2022-11-11T01:09:12;7.74;90.29
47757;SHT35;22147;52.388;13.390;2022-11-11T01:11:42;7.75;90.35
47757;SHT35;22147;52.388;13.390;2022-11-11T01:14:12;7.66;90.42
47757;SHT35;22147;52.388;13.390;2022-11-11T01:16:42;7.66;90.68
47757;SHT35;22147;52.388;13.390;2022-11-11T01:19:12;7.65;90.62
47757;SHT35;22147;52.388;13.390;2022-11-11T01:21:42;7.62;90.61
47757;SHT35;22147;52.388;13.390;2022-11-11T01:24:12;7.61;90.68
47757;SHT35;22147;52.388;13.390;2022-11-11T01:26:43;7.64;90.77
47757;SHT35;22147;52.388;13.390;2022-11-11T01:29:13;7.65;90.89
47757;SHT35;22147;52.388;13.390;2022-11-11T01:31:43;7.69;90.93
47757;SHT35;22147;52.388;13.390;2022-11-11T01:34:13;7.81;90.91
47757;SHT35;22147;52.388;13.390;2022-11-11T01:36:43;7.82;90.85
47757;SHT35;22147;52.388;13.390;2022-11-11T01:39:14;7.82;90.74
47757;SHT35;22147;52.388;13.390;2022-11-11T01:41:44;7.88;90.72
47757;SHT35;22147;52.388;13.390;2022-11-11T01:44:46;7.85;90.59
47757;SHT35;22147;52.388;13.390;2022-11-11T01:47:18;7.85;90.59
47757;SHT35;22147;52.388;13.390;2022-11-11T01:49:54;7.92;90.51
47757;SHT35;22147;52.388;13.390;2022-11-11T01:52:42;7.89;90.33
47757;SHT35;22147;52.388;13.390;2022-11-11T01:55:21;7.92;90.31
47757;SHT35;22147;52.388;13.390;2022-11-11T01:58:13;7.88;90.37
47757;SHT35;22147;52.388;13.390;2022-11-11T02:00:44;7.89;90.35
47757;SHT35;22147;52.388;13.390;2022-11-11T02:03:22;7.88;90.38
47757;SHT35;22147;52.388;13.390;2022-11-11T02:05:54;7.86;90.34
47757;SHT35;22147;52.388;13.390;2022-11-11T02:08:36;7.85;90.47
47757;SHT35;22147;52.388;13.390;2022-11-11T02:11:19;7.92;90.53
47757;SHT35;22147;52.388;13.390;2022-11-11T02:14:09;7.93;90.25
47757;SHT35;22147;52.388;13.390;2022-11-11T02:16:57;7.88;90.17
47757;SHT35;22147;52.388;13.390;2022-11-11T02:19:48;7.86;90.21
47757;SHT35;22147;52.388;13.390;2022-11-11T02:22:51;7.86;90.24
47757;SHT35;22147;52.388;13.390;2022-11-11T02:25:30;7.79;90.18
47757;SHT35;22147;52.388;13.390;2022-11-11T02:28:09;7.78;90.23
47757;SHT35;22147;52.388;13.390;2022-11-11T02:30:40;7.72;90.33
47757;SHT35;22147;52.388;13.390;2022-11-11T02:33:11;7.75;90.45
47757;SHT35;22147;52.388;13.390;2022-11-11T02:35:50;7.72;90.42
47757;SHT35;22147;52.388;13.390;2022-11-11T02:38:29;7.68;90.39
47757;SHT35;22147;52.388;13.390;2022-11-11T02:41:00;7.64;90.41
47757;SHT35;22147;52.388;13.390;2022-11-11T02:43:48;7.61;90.53
47757;SHT35;22147;52.388;13.390;2022-11-11T02:46:19;7.58;90.61
47757;SHT35;22147;52.388;13.390;2022-11-11T02:48:49;7.58;90.64
47757;SHT35;22147;52.388;13.390;2022-11-11T02:51:19;7.55;90.60
47757;SHT35;22147;52.388;13.390;2022-11-11T02:53:49;7.52;90.57
47757;SHT35;22147;52.388;13.390;2022-11-11T02:56:24;7.51;90.60
47757;SHT35;22147;52.388;13.390;2022-11-11T02:59:12;7.46;90.75
47757;SHT35;22147;52.388;13.390;2022-11-11T03:01:43;7.47;90.85
47757;SHT35;22147;52.388;13.390;2022-11-11T03:04:13;7.50;90.91
47757;SHT35;22147;52.388;13.390;2022-11-11T03:06:44;7.50;90.98
47757;SHT35;22147;52.388;13.390;2022-11-11T03:09:12;7.48;91.00
47757;SHT35;22147;52.388;13.390;2022-11-11T03:11:40;7.50;91.07
47757;SHT35;22147;52.388;13.390;2022-11-11T03:14:09;7.51;91.14
47757;SHT35;22147;52.388;13.390;2022-11-11T03:16:37;7.52;91.22
47757;SHT35;22147;52.388;13.390;2022-11-11T03:19:26;7.51;91.30
47757;SHT35;22147;52.388;13.390;2022-11-11T03:21:58;7.51;91.33
47757;SHT35;22147;52.388;13.390;2022-11-11T03:24:48;7.55;91.34
47757;SHT35;22147;52.388;13.390;2022-11-11T03:27:36;7.61;91.34
47757;SHT35;22147;52.388;13.390;2022-11-11T03:30:08;7.61;91.26
47757;SHT35;22147;52.388;13.390;2022-11-11T03:32:38;7.64;91.26
47757;SHT35;22147;52.388;13.390;2022-11-11T03:35:08;7.74;91.09
47757;SHT35;22147;52.388;13.390;2022-11-11T03:37:38;7.71;90.93
47757;SHT35;22147;52.388;13.390;2022-11-11T03:40:26;7.71;90.86
47757;SHT35;22147;52.388;13.390;2022-11-11T03:42:56;7.69;90.85
47757;SHT35;22147;52.388;13.390;2022-11-11T03:45:33;7.68;90.86
47757;SHT35;22147;52.388;13.390;2022-11-11T03:48:04;7.68;90.85
47757;SHT35;22147;52.388;13.390;2022-11-11T03:50:34;7.76;90.94
47757;SHT35;22147;52.388;13.390;2022-11-11T03:53:07;7.74;90.55
47757;SHT35;22147;52.388;13.390;2022-11-11T03:55:37;7.69;90.63
47757;SHT35;22147;52.388;13.390;2022-11-11T03:58:07;7.64;90.66
47757;SHT35;22147;52.388;13.390;2022-11-11T04:00:37;7.61;90.78
47757;SHT35;22147;52.388;13.390;2022-11-11T04:03:16;7.59;90.88
47757;SHT35;22147;52.388;13.390;2022-11-11T04:06:04;7.72;90.70
47757;SHT35;22147;52.388;13.390;2022-11-11T04:08:53;7.64;90.54
47757;SHT35;22147;52.388;13.390;2022-11-11T04:11:46;7.65;90.62
47757;SHT35;22147;52.388;13.390;2022-11-11T04:14:17;7.61;90.64
47757;SHT35;22147;52.388;13.390;2022-11-11T04:17:05;7.65;90.83
47757;SHT35;22147;52.388;13.390;2022-11-11T04:19:36;7.54;90.79
47757;SHT35;22147;52.388;13.390;2022-11-11T04:22:24;7.51;90.96
47757;SHT35;22147;52.388;13.390;2022-11-11T04:24:54;7.55;91.15
47757;SHT35;22147;52.388;13.390;2022-11-11T04:27:43;7.55;91.00
47757;SHT35;22147;52.388;13.390;2022-11-11T04:30:14;7.58;91.00
47757;SHT35;22147;52.388;13.390;2022-11-11T04:32:45;7.52;91.00
47757;SHT35;22147;52.388;13.390;2022-11-11T04:35:14;7.50;91.05
47757;SHT35;22147;52.388;13.390;2022-11-11T04:37:48;7.52;91.24
47757;SHT35;22147;52.388;13.390;2022-11-11T04:40:19;7.51;91.23
47757;SHT35;22147;52.388;13.390;2022-11-11T04:43:07;7.51;91.25
47757;SHT35;22147;52.388;13.390;2022-11-11T04:45:36;7.52;91.25
47757;SHT35;22147;52.388;13.390;2022-11-11T04:48:09;7.52;91.22
47757;SHT35;22147;52.388;13.390;2022-11-11T04:50:43;7.59;91.38
47757;SHT35;22147;52.388;13.390;2022-11-11T04:53:14;7.57;91.03
47757;SHT35;22147;52.388;13.390;2022-11-11T04:55:45;7.52;91.04
47757;SHT35;22147;52.388;13.390;2022-11-11T04:58:34;7.50;91.16
47757;SHT35;22147;52.388;13.390;2022-11-11T05:01:04;7.50;91.18
47757;SHT35;22147;52.388;13.390;2022-11-11T05:03:34;7.48;91.19
47757;SHT35;22147;52.388;13.390;2022-11-11T05:06:04;7.44;91.17
47757;SHT35;22147;52.388;13.390;2022-11-11T05:08:52;7.41;91.31
47757;SHT35;22147;52.388;13.390;2022-11-11T05:11:30;7.47;91.36
47757;SHT35;22147;52.388;13.390;2022-11-11T05:14:05;7.47;91.36
47757;SHT35;22147;52.388;13.390;2022-11-11T05:16:58;7.47;91.42
47757;SHT35;22147;52.388;13.390;2022-11-11T05:19:46;7.48;91.37
47757;SHT35;22147;52.388;13.390;2022-11-11T05:22:39;7.46;91.36
47757;SHT35;22147;52.388;13.390;2022-11-11T05:25:11;7.48;91.44
47757;SHT35;22147;52.388;13.390;2022-11-11T05:27:57;7.51;91.38
47757;SHT35;22147;52.388;13.390;2022-11-11T05:30:28;7.57;91.36
47757;SHT35;22147;52.388;13.390;2022-11-11T05:32:58;7.58;91.31
47757;SHT35;22147;52.388;13.390;2022-11-11T05:35:28;7.52;91.25
47757;SHT35;22147;52.388;13.390;2022-11-11T05:38:01;7.51;91.25
47757;SHT35;22147;52.388;13.390;2022-11-11T05:40:50;7.48;91.26
47757;SHT35;22147;52.388;13.390;2022-11-11T05:43:20;7.51;91.31
47757;SHT35;22147;52.388;13.390;2022-11-11T05:45:50;7.46;91.29
47757;SHT35;22147;52.388;13.390;2022-11-11T05:48:19;7.44;91.28
47757;SHT35;22147;52.388;13.390;2022-11-11T05:50:50;7.41;91.37
47757;SHT35;22147;52.388;13.390;2022-11-11T05:53:22;7.40;91.37
47757;SHT35;22147;52.388;13.390;2022-11-11T05:55:53;7.34;91.34
47757;SHT35;22147;52.388;13.390;2022-11-11T05:58:23;7.32;91.33
47757;SHT35;22147;52.388;13.390;2022-11-11T06:00:53;7.35;91.39
47757;SHT35;22147;52.388;13.390;2022-11-11T06:03:23;7.35;91.42
47757;SHT35;22147;52.388;13.390;2022-11-11T06:05:54;7.34;91.39
47757;SHT35;22147;52.388;13.390;2022-11-11T06:08:25;7.31;91.40
47757;SHT35;22147;52.388;13.390;2022-11-11T06:10:55;7.34;91.43
47757;SHT35;22147;52.388;13.390;2022-11-11T06:13:24;7.32;91.48
47757;SHT35;22147;52.388;13.390;2022-11-11T06:15:57;7.31;91.51
47757;SHT35;22147;52.388;13.390;2022-11-11T06:18:26;7.31;91.56
47757;SHT35;22147;52.388;13.390;2022-11-11T06:21:00;7.34;91.54
47757;SHT35;22147;52.388;13.390;2022-11-11T06:23:31;7.31;91.52
47757;SHT35;22147;52.388;13.390;2022-11-11T06:26:01;7.32;91.47
47757;SHT35;22147;52.388;13.390;2022-11-11T06:28:53;7.34;91.45
47757;SHT35;22147;52.388;13.390;2022-11-11T06:31:26;7.32;91.44
47757;SHT35;22147;52.388;13.390;2022-11-11T06:33:59;7.34;91.47
47757;SHT35;22147;52.388;13.390;2022-11-11T06:36:28;7.31;91.39
47757;SHT35;22147;52.388;13.390;2022-11-11T06:38:56;7.34;91.47
47757;SHT35;22147;52.388;13.390;2022-11-11T06:41:26;7.35;91.42
47757;SHT35;22147;52.388;13.390;2022-11-11T06:43:56;7.32;91.44
47757;SHT35;22147;52.388;13.390;2022-11-11T06:46:26;7.47;91.44
47757;SHT35;22147;52.388;13.390;2022-11-11T06:48:56;7.44;91.28
47757;SHT35;22147;52.388;13.390;2022-11-11T06:51:26;7.50;91.13
47757;SHT35;22147;52.388;13.390;2022-11-11T06:53:56;7.55;91.11
47757;SHT35;22147;52.388;13.390;2022-11-11T06:56:26;7.62;91.01
47757;SHT35;22147;52.388;13.390;2022-11-11T06:58:56;7.68;90.59
47757;SHT35;22147;52.388;13.390;2022-11-11T07:01:26;7.65;90.59
47757;SHT35;22147;52.388;13.390;2022-11-11T07:03:55;7.57;90.64
47757;SHT35;22147;52.388;13.390;2022-11-11T07:06:25;7.61;90.75
47757;SHT35;22147;52.388;13.390;2022-11-11T07:08:55;7.64;90.71
47757;SHT35;22147;52.388;13.390;2022-11-11T07:11:23;7.66;90.65
47757;SHT35;22147;52.388;13.390;2022-11-11T07:13:52;7.74;90.70
47757;SHT35;22147;52.388;13.390;2022-11-11T07:16:20;7.74;90.52
47757;SHT35;22147;52.388;13.390;2022-11-11T07:18:49;7.78;90.36
47757;SHT35;22147;52.388;13.390;2022-11-11T07:21:17;7.75;90.24
47757;SHT35;22147;52.388;13.390;2022-11-11T07:23:46;7.81;90.34
47757;SHT35;22147;52.388;13.390;2022-11-11T07:26:14;7.89;90.18
47757;SHT35;22147;52.388;13.390;2022-11-11T07:28:42;7.89;90.12
47757;SHT35;22147;52.388;13.390;2022-11-11T07:31:11;7.97;90.14
47757;SHT35;22147;52.388;13.390;2022-11-11T07:33:39;8.07;89.93
47757;SHT35;22147;52.388;13.390;2022-11-11T07:36:08;8.09;89.62
47757;SHT35;22147;52.388;13.390;2022-11-11T07:38:36;8.17;89.25
47757;SHT35;22147;52.388;13.390;2022-11-11T07:41:05;8.16;89.22
47757;SHT35;22147;52.388;13.390;2022-11-11T07:43:36;8.33;89.03
47757;SHT35;22147;52.388;13.390;2022-11-11T07:46:04;8.33;88.72
47757;SHT35;22147;52.388;13.390;2022-11-11T07:48:36;8.30;88.50
47757;SHT35;22147;52.388;13.390;2022-11-11T07:51:06;8.36;88.72
47757;SHT35;22147;52.388;13.390;2022-11-11T07:53:36;8.41;88.53
47757;SHT35;22147;52.388;13.390;2022-11-11T07:56:06;8.51;87.87
47757;SHT35;22147;52.388;13.390;2022-11-11T07:58:36;8.45;87.76
47757;SHT35;22147;52.388;13.390;2022-11-11T08:01:07;8.51;87.98
47757;SHT35;22147;52.388;13.390;2022-11-11T08:03:38;8.58;87.83
47757;SHT35;22147;52.388;13.390;2022-11-11T08:06:21;8.60;88.07
47757;SHT35;22147;52.388;13.390;2022-11-11T08:08:51;8.67;88.02
47757;SHT35;22147;52.388;13.390;2022-11-11T08:11:21;8.67;87.81
47757;SHT35;22147;52.388;13.390;2022-11-11T08:14:11;8.81;87.62
47757;SHT35;22147;52.388;13.390;2022-11-11T08:16:42;8.88;87.34
47757;SHT35;22147;52.388;13.390;2022-11-11T08:19:15;9.01;86.86
47757;SHT35;22147;52.388;13.390;2022-11-11T08:21:42;9.05;86.82
47757;SHT35;22147;52.388;13.390;2022-11-11T08:24:12;9.12;86.67
47757;SHT35;22147;52.388;13.390;2022-11-11T08:27:02;9.18;86.27
47757;SHT35;22147;52.388;13.390;2022-11-11T08:29:32;9.29;86.58
47757;SHT35;22147;52.388;13.390;2022-11-11T08:32:05;9.36;86.02
47757;SHT35;22147;52.388;13.390;2022-11-11T08:34:36;9.47;86.16
47757;SHT35;22147;52.388;13.390;2022-11-11T08:37:06;9.51;85.19
47757;SHT35;22147;52.388;13.390;2022-11-11T08:39:36;9.64;85.04
47757;SHT35;22147;52.388;13.390;2022-11-11T08:42:07;9.75;85.29
47757;SHT35;22147;52.388;13.390;2022-11-11T08:44:37;9.84;84.38
47757;SHT35;22147;52.388;13.390;2022-11-11T08:47:07;9.95;84.09
47757;SHT35;22147;52.388;13.390;2022-11-11T08:49:38;9.98;84.04
47757;SHT35;22147;52.388;13.390;2022-11-11T08:52:08;10.05;83.85
47757;SHT35;22147;52.388;13.390;2022-11-11T08:54:38;10.16;83.50
47757;SHT35;22147;52.388;13.390;2022-11-11T08:57:07;10.28;83.31
47757;SHT35;22147;52.388;13.390;2022-11-11T08:59:35;10.38;82.87
47757;SHT35;22147;52.388;13.390;2022-11-11T09:02:03;10.50;82.85
47757;SHT35;22147;52.388;13.390;2022-11-11T09:04:32;10.61;82.10
47757;SHT35;22147;52.388;13.390;2022-11-11T09:07:22;10.77;81.64
47757;SHT35;22147;52.388;13.390;2022-11-11T09:09:53;10.71;80.29
47757;SHT35;22147;52.388;13.390;2022-11-11T09:12:24;10.83;80.90
47757;SHT35;22147;52.388;13.390;2022-11-11T09:14:54;11.02;80.80
47757;SHT35;22147;52.388;13.390;2022-11-11T09:17:24;11.12;80.21
47757;SHT35;22147;52.388;13.390;2022-11-11T09:19:54;11.17;79.78
47757;SHT35;22147;52.388;13.390;2022-11-11T09:22:25;11.22;79.69
47757;SHT35;22147;52.388;13.390;2022-11-11T09:24:55;11.28;79.47
47757;SHT35;22147;52.388;13.390;2022-11-11T09:27:23;11.18;78.99
47757;SHT35;22147;52.388;13.390;2022-11-11T09:29:52;11.10;80.24
47757;SHT35;22147;52.388;13.390;2022-11-11T09:32:20;11.24;79.80
47757;SHT35;22147;52.388;13.390;2022-11-11T09:34:48;11.36;79.21
47757;SHT35;22147;52.388;13.390;2022-11-11T09:37:17;11.18;79.50
47757;SHT35;22147;52.388;13.390;2022-11-11T09:39:45;11.39;80.16
47757;SHT35;22147;52.388;13.390;2022-11-11T09:48:07;11.67;78.66
47757;SHT35;22147;52.388;13.390;2022-11-11T09:50:53;11.67;78.66
47757;SHT35;22147;52.388;13.390;2022-11-11T09:54:01;11.80;78.87
47757;SHT35;22147;52.388;13.390;2022-11-11T09:56:32;11.87;77.50
47757;SHT35;22147;52.388;13.390;2022-11-11T09:59:23;11.89;78.08
47757;SHT35;22147;52.388;13.390;2022-11-11T10:02:00;11.97;77.98
47757;SHT35;22147;52.388;13.390;2022-11-11T10:05:23;12.00;77.48
47757;SHT35;22147;52.388;13.390;2022-11-11T10:10:59;12.00;76.37
47757;SHT35;22147;52.388;13.390;2022-11-11T10:13:37;12.07;77.06
47757;SHT35;22147;52.388;13.390;2022-11-11T10:20:13;12.22;76.17
47757;SHT35;22147;52.388;13.390;2022-11-11T10:23:17;12.15;75.27
47757;SHT35;22147;52.388;13.390;2022-11-11T10:25:53;12.14;75.90
47757;SHT35;22147;52.388;13.390;2022-11-11T10:28:34;12.13;75.64
47757;SHT35;22147;52.388;13.390;2022-11-11T10:31:18;12.36;75.49
47757;SHT35;22147;52.388;13.390;2022-11-11T10:34:10;12.34;74.97
47757;SHT35;22147;52.388;13.390;2022-11-11T10:36:52;12.39;74.90
47757;SHT35;22147;52.388;13.390;2022-11-11T10:40:25;12.39;73.56
47757;SHT35;22147;52.388;13.390;2022-11-11T10:42:56;12.55;74.88
47757;SHT35;22147;52.388;13.390;2022-11-11T10:49:01;12.72;73.41
47757;SHT35;22147;52.388;13.390;2022-11-11T10:52:07;12.80;72.96
47757;SHT35;22147;52.388;13.390;2022-11-11T10:54:58;12.79;72.57
47757;SHT35;22147;52.388;13.390;2022-11-11T10:58:24;13.01;72.42
47757;SHT35;22147;52.388;13.390;2022-11-11T11:01:05;12.97;72.20
47757;SHT35;22147;52.388;13.390;2022-11-11T11:03:48;13.00;72.61
47757;SHT35;22147;52.388;13.390;2022-11-11T11:06:30;13.06;71.12
47757;SHT35;22147;52.388;13.390;2022-11-11T11:09:34;12.94;71.86
47757;SHT35;22147;52.388;13.390;2022-11-11T11:12:54;12.76;72.68
47757;SHT35;22147;52.388;13.390;2022-11-11T11:15:36;12.79;73.31
47757;SHT35;22147;52.388;13.390;2022-11-11T11:18:14;12.86;72.55
47757;SHT35;22147;52.388;13.390;2022-11-11T11:21:06;12.94;72.53
47757;SHT35;22147;52.388;13.390;2022-11-11T11:23:41;12.97;71.97
47757;SHT35;22147;52.388;13.390;2022-11-11T11:26:14;12.66;72.05
47757;SHT35;22147;52.388;13.390;2022-11-11T11:28:55;12.92;72.95
47757;SHT35;22147;52.388;13.390;2022-11-11T11:31:39;12.63;72.69
47757;SHT35;22147;52.388;13.390;2022-11-11T11:34:07;12.76;73.15
47757;SHT35;22147;52.388;13.390;2022-11-11T11:36:37;12.83;73.26
47757;SHT35;22147;52.388;13.390;2022-11-11T11:39:08;12.73;72.43
47757;SHT35;22147;52.388;13.390;2022-11-11T11:41:44;12.82;72.52
47757;SHT35;22147;52.388;13.390;2022-11-11T11:44:31;12.83;72.35
47757;SHT35;22147;52.388;13.390;2022-11-11T11:50:31;12.84;73.01
47757;SHT35;22147;52.388;13.390;2022-11-11T11:53:30;12.82;72.79
47757;SHT35;22147;52.388;13.390;2022-11-11T11:56:49;12.92;73.96
47757;SHT35;22147;52.388;13.390;2022-11-11T11:59:50;12.94;72.81
47757;SHT35;22147;52.388;13.390;2022-11-11T12:19:56;12.96;72.90
47757;SHT35;22147;52.388;13.390;2022-11-11T12:35:52;12.84;72.61
47757;SHT35;22147;52.388;13.390;2022-11-11T12:44:57;13.08;72.93
47757;SHT35;22147;52.388;13.390;2022-11-11T12:53:50;13.26;72.69
47757;SHT35;22147;52.388;13.390;2022-11-11T12:56:52;13.19;72.33
47757;SHT35;22147;52.388;13.390;2022-11-11T13:03:26;13.11;72.10
47757;SHT35;22147;52.388;13.390;2022-11-11T13:06:19;13.04;72.78
47757;SHT35;22147;52.388;13.390;2022-11-11T13:09:14;13.03;72.16
47757;SHT35;22147;52.388;13.390;2022-11-11T13:15:25;12.94;72.36
47757;SHT35;22147;52.388;13.390;2022-11-11T13:18:01;13.07;72.59
47757;SHT35;22147;52.388;13.390;2022-11-11T13:20:58;13.11;72.63
47757;SHT35;22147;52.388;13.390;2022-11-11T13:23:28;13.08;72.67
47757;SHT35;22147;52.388;13.390;2022-11-11T13:26:23;13.00;73.42
47757;SHT35;22147;52.388;13.390;2022-11-11T13:32:10;12.97;74.36
47757;SHT35;22147;52.388;13.390;2022-11-11T13:34:43;12.94;74.63
47757;SHT35;22147;52.388;13.390;2022-11-11T13:37:29;12.86;75.55
47757;SHT35;22147;52.388;13.390;2022-11-11T13:40:13;12.82;75.43
47757;SHT35;22147;52.388;13.390;2022-11-11T13:42:53;12.84;75.84
47757;SHT35;22147;52.388;13.390;2022-11-11T13:45:42;12.75;76.10
47757;SHT35;22147;52.388;13.390;2022-11-11T13:49:05;12.58;75.35
47757;SHT35;22147;52.388;13.390;2022-11-11T13:51:43;12.63;76.05
47757;SHT35;22147;52.388;13.390;2022-11-11T13:57:31;12.66;76.42
47757;SHT35;22147;52.388;13.390;2022-11-11T14:00:25;12.63;76.10
47757;SHT35;22147;52.388;13.390;2022-11-11T14:14:44;12.36;75.76
47757;SHT35;22147;52.388;13.390;2022-11-11T14:17:21;12.41;75.49
47757;SHT35;22147;52.388;13.390;2022-11-11T14:19:51;12.41;75.26
47757;SHT35;22147;52.388;13.390;2022-11-11T14:22:33;12.41;75.84
47757;SHT35;22147;52.388;13.390;2022-11-11T14:25:26;12.36;76.04
47757;SHT35;22147;52.388;13.390;2022-11-11T14:27:57;12.29;76.24
47757;SHT35;22147;52.388;13.390;2022-11-11T14:30:38;12.28;75.63
47757;SHT35;22147;52.388;13.390;2022-11-11T14:33:51;12.21;75.30
47757;SHT35;22147;52.388;13.390;2022-11-11T14:36:57;12.17;75.92
47757;SHT35;22147;52.388;13.390;2022-11-11T14:39:51;12.13;75.64
47757;SHT35;22147;52.388;13.390;2022-11-11T14:47:52;11.98;76.16
47757;SHT35;22147;52.388;13.390;2022-11-11T14:53:37;11.82;76.89
47757;SHT35;22147;52.388;13.390;2022-11-11T14:56:17;11.77;76.78
47757;SHT35;22147;52.388;13.390;2022-11-11T14:58:47;11.70;76.87
47757;SHT35;22147;52.388;13.390;2022-11-11T15:01:21;11.65;77.33
47757;SHT35;22147;52.388;13.390;2022-11-11T15:03:54;11.52;78.04
47757;SHT35;22147;52.388;13.390;2022-11-11T15:06:35;11.42;77.54
47757;SHT35;22147;52.388;13.390;2022-11-11T15:12:37;11.21;79.56
47757;SHT35;22147;52.388;13.390;2022-11-11T15:21:35;10.77;81.22
47757;SHT35;22147;52.388;13.390;2022-11-11T15:30:22;10.49;82.46
47757;SHT35;22147;52.388;13.390;2022-11-11T15:33:23;10.40;82.92
47757;SHT35;22147;52.388;13.390;2022-11-11T15:39:18;10.16;84.04
47757;SHT35;22147;52.388;13.390;2022-11-11T15:41:52;10.06;84.13
47757;SHT35;22147;52.388;13.390;2022-11-11T15:44:33;9.99;84.33
47757;SHT35;22147;52.388;13.390;2022-11-11T15:47:06;9.91;84.46
47757;SHT35;22147;52.388;13.390;2022-11-11T15:49:47;9.87;84.59
47757;SHT35;22147;52.388;13.390;2022-11-11T15:52:34;9.74;84.98
47757;SHT35;22147;52.388;13.390;2022-11-11T15:55:29;9.63;85.16
47757;SHT35;22147;52.388;13.390;2022-11-11T16:00:45;9.46;85.64
47757;SHT35;22147;52.388;13.390;2022-11-11T16:03:24;9.43;85.80
47757;SHT35;22147;52.388;13.390;2022-11-11T16:06:08;9.34;86.03
47757;SHT35;22147;52.388;13.390;2022-11-11T16:08:49;9.24;86.15
47757;SHT35;22147;52.388;13.390;2022-11-11T16:11:20;9.22;86.25
47757;SHT35;22147;52.388;13.390;2022-11-11T16:14:05;9.12;86.47
47757;SHT35;22147;52.388;13.390;2022-11-11T16:16:40;9.08;86.60
47757;SHT35;22147;52.388;13.390;2022-11-11T16:19:37;9.02;86.64
47757;SHT35;22147;52.388;13.390;2022-11-11T16:22:28;8.98;86.64
47757;SHT35;22147;52.388;13.390;2022-11-11T16:25:02;8.89;86.70
47757;SHT35;22147;52.388;13.390;2022-11-11T16:27:34;8.84;86.93
47757;SHT35;22147;52.388;13.390;2022-11-11T16:30:35;8.76;87.17
47757;SHT35;22147;52.388;13.390;2022-11-11T16:36:10;8.61;87.30
47757;SHT35;22147;52.388;13.390;2022-11-11T16:38:41;8.54;87.58
47757;SHT35;22147;52.388;13.390;2022-11-11T16:41:29;8.48;87.67
47757;SHT35;22147;52.388;13.390;2022-11-11T16:44:39;8.44;87.97
47757;SHT35;22147;52.388;13.390;2022-11-11T16:50:22;8.33;88.10
47757;SHT35;22147;52.388;13.390;2022-11-11T16:53:02;8.29;88.14
47757;SHT35;22147;52.388;13.390;2022-11-11T16:55:48;8.24;88.19
47757;SHT35;22147;52.388;13.390;2022-11-11T16:58:22;8.17;88.22
47757;SHT35;22147;52.388;13.390;2022-11-11T17:01:02;8.16;88.25
47757;SHT35;22147;52.388;13.390;2022-11-11T17:03:32;8.06;88.28
47757;SHT35;22147;52.388;13.390;2022-11-11T17:06:07;8.05;88.36
47757;SHT35;22147;52.388;13.390;2022-11-11T17:08:44;8.00;88.40
47757;SHT35;22147;52.388;13.390;2022-11-11T17:14:08;7.90;88.55
47757;SHT35;22147;52.388;13.390;2022-11-11T17:16:37;7.86;88.60
47757;SHT35;22147;52.388;13.390;2022-11-11T17:19:05;7.81;88.73
47757;SHT35;22147;52.388;13.390;2022-11-11T17:21:34;7.75;88.72
47757;SHT35;22147;52.388;13.390;2022-11-11T17:24:02;7.76;88.81
47757;SHT35;22147;52.388;13.390;2022-11-11T17:26:30;7.75;88.93
47757;SHT35;22147;52.388;13.390;2022-11-11T17:28:59;7.72;88.89
47757;SHT35;22147;52.388;13.390;2022-11-11T17:31:28;7.65;88.85
47757;SHT35;22147;52.388;13.390;2022-11-11T17:33:56;7.62;88.92
47757;SHT35;22147;52.388;13.390;2022-11-11T17:36:24;7.57;88.99
47757;SHT35;22147;52.388;13.390;2022-11-11T17:38:52;7.48;88.99
47757;SHT35;22147;52.388;13.390;2022-11-11T17:41:21;7.48;89.08
47757;SHT35;22147;52.388;13.390;2022-11-11T17:43:50;7.48;89.20
47757;SHT35;22147;52.388;13.390;2022-11-11T17:46:17;7.47;89.27
47757;SHT35;22147;52.388;13.390;2022-11-11T17:48:45;7.47;89.24
47757;SHT35;22147;52.388;13.390;2022-11-11T17:51:14;7.43;89.22
47757;SHT35;22147;52.388;13.390;2022-11-11T17:53:42;7.43;89.18
47757;SHT35;22147;52.388;13.390;2022-11-11T17:56:10;7.41;89.13
47757;SHT35;22147;52.388;13.390;2022-11-11T17:58:39;7.37;89.14
47757;SHT35;22147;52.388;13.390;2022-11-11T18:01:13;7.35;89.11
47757;SHT35;22147;52.388;13.390;2022-11-11T18:03:44;7.34;89.13
47757;SHT35;22147;52.388;13.390;2022-11-11T18:06:14;7.31;89.10
47757;SHT35;22147;52.388;13.390;2022-11-11T18:08:44;7.24;89.02
47757;SHT35;22147;52.388;13.390;2022-11-11T18:11:13;7.26;89.19
47757;SHT35;22147;52.388;13.390;2022-11-11T18:13:41;7.23;89.18
47757;SHT35;22147;52.388;13.390;2022-11-11T18:16:16;7.17;89.18
47757;SHT35;22147;52.388;13.390;2022-11-11T18:18:46;7.10;89.22
47757;SHT35;22147;52.388;13.390;2022-11-11T18:21:16;7.10;89.30
47757;SHT35;22147;52.388;13.390;2022-11-11T18:23:47;7.06;89.36
47757;SHT35;22147;52.388;13.390;2022-11-11T18:26:20;7.01;89.29
47757;SHT35;22147;52.388;13.390;2022-11-11T18:28:50;6.95;89.33
47757;SHT35;22147;52.388;13.390;2022-11-11T18:31:21;6.93;89.41
47757;SHT35;22147;52.388;13.390;2022-11-11T18:33:51;6.92;89.49
47757;SHT35;22147;52.388;13.390;2022-11-11T18:36:21;6.88;89.52